This is the latest recevied weather packets stored in our database for station/object KB1JL-13. If no packets are shown the sender has not sent any weather packets the latest 10 day(s).
| Time | Temp. | Humidity | Pressure | Rain* | Wind** | Luminosity | Snow |
|---|---|---|---|---|---|---|---|
| 1777731072 | 11.67° C | 87% | 1023.7 hPa | 0 mm | - | 166 W/m² | - |
| 1777730771 | 11.11° C | 88% | 1023.4 hPa | 0 mm | - | 133 W/m² | - |
| 1777730467 | 11.11° C | 89% | 1023.7 hPa | 0 mm | - | 151 W/m² | - |
| 1777730163 | 11.11° C | 88% | 1023.4 hPa | 0 mm | - | 146 W/m² | - |
| 1777729860 | 10.56° C | 89% | 1023.4 hPa | 0 mm | - | 134 W/m² | - |
| 1777729556 | 10.56° C | 87% | 1023.7 hPa | 0 mm | - | 116 W/m² | - |
| 1777729253 | 10.56° C | 88% | 1023.7 hPa | 0 mm | - | 94 W/m² | - |
| 1777728950 | 11.11° C | 90% | 1023.7 hPa | 0 mm | - | 107 W/m² | - |
| 1777728647 | 11.11° C | 89% | 1023.7 hPa | 0 mm | - | 120 W/m² | - |
| 1777728344 | 10.56° C | 88% | 1023.7 hPa | 0 mm | - | 134 W/m² | - |
| 1777728040 | 10.56° C | 88% | 1023.7 hPa | 0 mm | - | 100 W/m² | - |
| 1777727737 | 10.56° C | 89% | 1023.7 hPa | 0 mm | - | 154 W/m² | - |
| 1777727434 | 10.56° C | 89% | 1023.4 hPa | 0 mm | - | 125 W/m² | - |
| 1777727132 | 10.56° C | 89% | 1023.4 hPa | 0 mm | - | 165 W/m² | - |
| 1777726830 | 10.56° C | 89% | 1023.4 hPa | 0 mm | - | 163 W/m² | - |
| 1777726526 | 10.56° C | 89% | 1023.7 hPa | 0 mm | - | 120 W/m² | - |
| 1777725920 | 10.56° C | 92% | 1023.4 hPa | 0 mm | - | 194 W/m² | - |
| 1777725617 | 10° C | 91% | 1023.4 hPa | 0 mm | - | 158 W/m² | - |
| 1777725315 | 10° C | 97% | 1023.7 hPa | 0 mm | - | 245 W/m² | - |
| 1777725011 | 10° C | 98% | 1023.7 hPa | 0 mm | - | 250 W/m² | - |
| 1777724708 | 10° C | 98% | 1023.4 hPa | 0 mm | - | 257 W/m² | - |
| 1777724406 | 9.44° C | 99% | 1023.7 hPa | 0 mm | - | 235 W/m² | - |
| 1777723800 | 8.89° C | 99% | 1023.4 hPa | 0 mm | - | 101 W/m² | - |
| 1777723193 | 8.89° C | 99% | 1023 hPa | 0 mm | - | 99 W/m² | - |
| 1777721981 | 8.33° C | 98% | 1023.7 hPa | 0 mm | - | 33 W/m² | - |
* Rain latest hour (hover to see other rain measurements)
** Current wind speed in m/s (hover to see current wind gust speed)